Time;durP1;ratioP1;P1;durP2;ratioP2;P2;SDS_P1;SDS_P2;PMS_P1;PMS_P2;Temp;Humidity;BMP_temperature;BMP_pressure;BME280_temperature;BME280_humidity;BME280_pressure;Samples;Min_cycle;Max_cycle;Signal;HPM_P1;HPM_P2
2021/08/02 00:02:34;;;;;;;1.50;1.00;;;17.80;98.20;;;;;;4994143;28;20530;-80
2021/08/02 00:05:04;;;;;;;1.50;0.90;;;17.90;98.20;;;;;;4988672;28;20467;-80
2021/08/02 00:07:34;;;;;;;1.50;0.90;;;17.90;98.20;;;;;;4993571;28;20488;-80
2021/08/02 00:10:09;;;;;;;1.50;1.00;;;17.90;98.20;;;;;;4984928;28;20477;-79
2021/08/02 00:12:42;;;;;;;1.50;1.00;;;17.90;98.20;;;;;;4993146;28;20863;-79
2021/08/02 00:15:11;;;;;;;1.50;0.90;;;17.90;98.20;;;;;;4990274;28;20497;-79
2021/08/02 00:17:43;;;;;;;1.50;0.90;;;17.90;98.20;;;;;;4993067;28;20495;-79
2021/08/02 00:20:12;;;;;;;1.50;0.90;;;17.90;98.20;;;;;;4990913;28;20512;-79
2021/08/02 00:22:41;;;;;;;1.50;1.00;;;17.90;98.20;;;;;;4994028;28;20484;-79
2021/08/02 00:25:09;;;;;;;1.50;0.90;;;17.80;98.20;;;;;;4991130;28;20460;-79
2021/08/02 00:27:36;;;;;;;1.50;1.00;;;17.80;98.20;;;;;;4991460;28;20480;-80
2021/08/02 00:30:05;;;;;;;1.50;1.00;;;17.80;98.20;;;;;;4987431;28;20457;-79
2021/08/02 00:32:33;;;;;;;1.50;1.00;;;17.70;98.20;;;;;;4991875;28;20903;-80
2021/08/02 00:35:01;;;;;;;1.50;0.90;;;17.70;98.20;;;;;;4990224;28;20469;-80
2021/08/02 00:37:36;;;;;;;1.50;0.90;;;17.70;98.20;;;;;;4991748;28;20487;-80
2021/08/02 00:40:31;;;;;;;1.50;0.90;;;17.60;98.20;;;;;;4986377;28;20465;-80
2021/08/02 00:43:01;;;;;;;1.50;0.90;;;17.60;98.20;;;;;;4990997;28;20484;-80
2021/08/02 00:45:30;;;;;;;1.50;1.00;;;17.60;98.20;;;;;;4987844;28;20468;-81
2021/08/02 00:48:02;;;;;;;1.50;1.00;;;17.60;98.20;;;;;;4996410;28;20526;-80
2021/08/02 00:50:32;;;;;;;1.50;0.97;;;17.60;98.20;;;;;;4986753;28;21045;-79
2021/08/02 00:53:03;;;;;;;1.50;1.00;;;17.50;98.20;;;;;;4991835;28;20483;-80
2021/08/02 00:55:34;;;;;;;1.50;1.00;;;17.60;98.20;;;;;;4986081;28;20485;-80
2021/08/02 00:58:04;;;;;;;1.50;1.00;;;17.60;98.20;;;;;;4988982;28;20971;-80
2021/08/02 01:00:31;;;;;;;1.50;0.90;;;17.60;98.20;;;;;;4982565;28;20619;-80
2021/08/02 01:03:00;;;;;;;1.50;1.00;;;17.60;98.20;;;;;;4993794;28;20494;-80
2021/08/02 01:05:27;;;;;;;1.50;0.90;;;17.60;98.20;;;;;;4991602;28;20548;-80
2021/08/02 01:07:57;;;;;;;1.50;0.90;;;17.60;98.20;;;;;;4993498;28;20481;-80
2021/08/02 01:10:25;;;;;;;1.50;0.90;;;17.60;98.20;;;;;;4978198;28;20461;-80
2021/08/02 01:12:58;;;;;;;1.50;0.97;;;17.60;98.20;;;;;;4994752;28;20495;-80
2021/08/02 01:15:26;;;;;;;1.50;0.90;;;17.60;98.20;;;;;;4990242;28;20528;-80
2021/08/02 01:17:53;;;;;;;1.50;0.90;;;17.60;98.20;;;;;;4996723;28;20484;-80
2021/08/02 01:20:21;;;;;;;1.50;0.90;;;17.60;98.20;;;;;;4990554;28;20484;-80
2021/08/02 01:22:50;;;;;;;1.50;1.00;;;17.50;98.20;;;;;;4995569;28;20483;-80
2021/08/02 01:25:55;;;;;;;1.50;0.90;;;17.50;98.20;;;;;;4989902;28;20496;-80
2021/08/02 01:28:59;;;;;;;1.50;1.00;;;17.50;98.20;;;;;;4975944;28;20477;-80
2021/08/02 01:31:26;;;;;;;1.50;0.90;;;17.50;98.20;;;;;;4985812;28;20507;-80
2021/08/02 01:33:53;;;;;;;1.50;0.93;;;17.50;98.20;;;;;;5004558;28;20471;-80
2021/08/02 01:36:20;;;;;;;1.50;0.90;;;17.50;98.20;;;;;;4984557;28;20503;-80
2021/08/02 01:38:49;;;;;;;1.50;1.10;;;17.50;98.20;;;;;;5004145;28;20481;-80
2021/08/02 01:41:16;;;;;;;1.50;1.00;;;17.50;98.20;;;;;;4987433;28;20491;-80
2021/08/02 01:43:43;;;;;;;1.50;0.90;;;17.40;98.20;;;;;;5006555;28;20469;-80
2021/08/02 01:46:17;;;;;;;1.50;0.93;;;17.40;98.20;;;;;;4988033;28;20492;-80
2021/08/02 01:48:51;;;;;;;1.50;0.90;;;17.40;98.20;;;;;;5000624;28;20469;-80
2021/08/02 01:51:24;;;;;;;1.50;1.00;;;17.50;98.20;;;;;;4985622;28;20471;-80
2021/08/02 01:54:00;;;;;;;1.50;0.90;;;17.50;98.20;;;;;;5004993;28;20461;-80
2021/08/02 01:56:34;;;;;;;1.50;0.90;;;17.50;98.20;;;;;;4978270;28;20489;-80
2021/08/02 01:59:07;;;;;;;1.50;1.00;;;17.50;98.20;;;;;;4999873;28;20469;-80
2021/08/02 02:01:37;;;;;;;1.50;1.00;;;17.50;98.20;;;;;;4981349;28;20487;-79
2021/08/02 02:04:06;;;;;;;1.50;1.00;;;17.50;98.20;;;;;;5003266;28;20469;-80
2021/08/02 02:06:36;;;;;;;1.50;0.90;;;17.50;98.20;;;;;;4990589;28;20707;-80
2021/08/02 02:09:07;;;;;;;1.50;0.90;;;17.40;98.20;;;;;;5002976;28;20665;-80
2021/08/02 02:11:38;;;;;;;1.50;1.00;;;17.40;98.20;;;;;;4988692;28;20500;-80
2021/08/02 02:14:09;;;;;;;1.57;1.00;;;17.40;98.20;;;;;;5001134;28;21144;-79
2021/08/02 02:16:39;;;;;;;1.50;1.00;;;17.30;98.20;;;;;;4989822;28;20475;-80
2021/08/02 02:19:08;;;;;;;1.50;1.00;;;17.30;98.20;;;;;;4999120;28;20563;-80
2021/08/02 02:21:36;;;;;;;1.50;0.90;;;17.30;98.20;;;;;;4988467;28;20483;-80
2021/08/02 02:24:05;;;;;;;1.50;0.90;;;17.20;98.20;;;;;;5003088;28;20461;-80
2021/08/02 02:26:34;;;;;;;1.50;0.97;;;17.20;98.20;;;;;;4983340;28;20499;-80
2021/08/02 02:29:04;;;;;;;1.50;0.97;;;17.20;98.20;;;;;;4999421;28;20462;-80
2021/08/02 02:31:34;;;;;;;1.50;1.00;;;17.20;98.20;;;;;;4985625;28;20499;-79
2021/08/02 02:34:03;;;;;;;1.50;0.90;;;17.20;98.20;;;;;;5001452;28;20528;-80
2021/08/02 02:36:30;;;;;;;1.50;0.93;;;17.20;98.20;;;;;;4988294;28;21008;-80
2021/08/02 02:38:58;;;;;;;1.50;0.90;;;17.20;98.20;;;;;;4999074;28;20841;-80
2021/08/02 02:41:26;;;;;;;1.50;1.00;;;17.20;98.20;;;;;;4985980;28;20488;-80
2021/08/02 02:43:55;;;;;;;1.50;1.00;;;17.20;98.20;;;;;;5003797;28;20472;-80
2021/08/02 02:46:23;;;;;;;1.50;1.00;;;17.20;98.20;;;;;;4986248;28;20528;-80
2021/08/02 02:48:51;;;;;;;1.50;0.90;;;17.20;98.20;;;;;;4999440;28;20977;-80
2021/08/02 02:51:18;;;;;;;1.50;0.90;;;17.20;98.20;;;;;;4984766;28;20487;-80
2021/08/02 02:53:46;;;;;;;1.50;0.93;;;17.20;98.20;;;;;;5005133;28;20461;-80
2021/08/02 02:56:15;;;;;;;1.50;0.90;;;17.20;98.20;;;;;;4984523;28;20491;-80
2021/08/02 02:58:44;;;;;;;1.50;1.00;;;17.20;98.20;;;;;;5005380;28;20469;-79
2021/08/02 03:01:15;;;;;;;1.53;1.07;;;17.20;98.20;;;;;;4983330;28;20975;-79
2021/08/02 03:03:46;;;;;;;1.50;0.97;;;17.20;98.20;;;;;;5002474;28;20997;-80
2021/08/02 03:06:13;;;;;;;1.50;0.90;;;17.20;98.20;;;;;;4984160;28;21002;-79
2021/08/02 03:08:43;;;;;;;1.50;0.90;;;17.20;98.20;;;;;;5003300;28;20466;-80
2021/08/02 03:11:13;;;;;;;1.50;1.00;;;17.10;98.20;;;;;;4980474;28;20491;-79
2021/08/02 03:13:40;;;;;;;1.50;0.90;;;17.10;98.20;;;;;;5005490;28;20461;-79
2021/08/02 03:16:08;;;;;;;1.50;1.00;;;17.10;98.20;;;;;;4985760;28;20498;-79
2021/08/02 03:18:36;;;;;;;1.50;1.00;;;17.10;98.20;;;;;;5003055;28;20568;-80
2021/08/02 03:21:03;;;;;;;1.50;1.00;;;17.10;98.20;;;;;;4977499;28;20466;-80
2021/08/02 03:23:36;;;;;;;1.50;1.00;;;17.10;98.20;;;;;;5006042;28;20472;-80
2021/08/02 03:26:09;;;;;;;1.50;0.90;;;17.10;98.20;;;;;;4983973;28;20498;-80
2021/08/02 03:28:43;;;;;;;1.50;1.00;;;17.10;98.20;;;;;;5004878;28;20476;-79
2021/08/02 03:31:14;;;;;;;1.50;0.90;;;17.10;98.20;;;;;;4979375;28;20569;-80
2021/08/02 03:33:43;;;;;;;1.50;0.90;;;17.10;98.20;;;;;;5002380;28;21119;-80
2021/08/02 03:36:13;;;;;;;1.50;1.00;;;17.10;98.20;;;;;;4983069;28;20632;-79
2021/08/02 03:38:41;;;;;;;1.50;0.97;;;17.10;98.20;;;;;;5004027;28;20737;-79
2021/08/02 03:41:10;;;;;;;1.50;1.00;;;17.10;98.20;;;;;;4984390;28;20502;-79
2021/08/02 03:43:39;;;;;;;1.50;1.00;;;17.10;98.20;;;;;;5004015;28;20516;-80
2021/08/02 03:46:08;;;;;;;1.50;1.00;;;17.10;98.20;;;;;;4986091;28;20505;-80
2021/08/02 03:48:37;;;;;;;1.50;1.00;;;17.00;98.20;;;;;;5004615;28;20468;-80
2021/08/02 03:51:04;;;;;;;1.50;1.00;;;17.00;98.20;;;;;;4984503;28;20465;-80
2021/08/02 03:53:39;;;;;;;1.50;0.90;;;17.00;98.20;;;;;;5005056;28;20468;-79
2021/08/02 03:56:07;;;;;;;1.50;1.00;;;17.00;98.20;;;;;;4979176;28;20501;-79
2021/08/02 03:58:34;;;;;;;1.50;1.00;;;17.00;98.20;;;;;;5002571;28;20481;-79
2021/08/02 04:01:01;;;;;;;1.50;0.90;;;17.00;98.20;;;;;;4982357;28;20948;-79
2021/08/02 04:03:28;;;;;;;1.50;0.90;;;17.00;98.20;;;;;;5004202;28;20464;-79
2021/08/02 04:05:58;;;;;;;1.50;1.00;;;17.00;98.20;;;;;;4982828;28;20493;-79
2021/08/02 04:08:25;;;;;;;1.50;0.90;;;17.00;98.20;;;;;;5005222;28;20936;-79
2021/08/02 04:10:51;;;;;;;1.50;0.90;;;17.00;98.20;;;;;;4980470;28;20548;-79
2021/08/02 04:13:19;;;;;;;1.50;0.90;;;17.00;98.20;;;;;;4989506;28;20964;-79
2021/08/02 04:15:46;;;;;;;1.50;0.90;;;17.00;98.20;;;;;;4988611;28;20532;-79
2021/08/02 04:18:13;;;;;;;1.50;1.00;;;17.10;98.20;;;;;;5007584;28;20761;-79
2021/08/02 04:20:40;;;;;;;1.50;1.00;;;17.10;98.20;;;;;;4987252;28;20972;-81
2021/08/02 04:23:09;;;;;;;1.50;0.90;;;17.10;98.20;;;;;;4996380;28;20512;-79
2021/08/02 04:25:36;;;;;;;1.50;0.90;;;17.10;98.20;;;;;;4991762;28;20465;-79
2021/08/02 04:28:03;;;;;;;1.50;0.90;;;17.10;98.20;;;;;;4994172;28;20481;-78
2021/08/02 04:30:30;;;;;;;1.50;1.00;;;17.10;98.20;;;;;;4985376;28;20555;-78
2021/08/02 04:32:57;;;;;;;1.50;0.90;;;17.20;98.20;;;;;;4994502;28;20480;-78
2021/08/02 04:35:23;;;;;;;1.50;1.00;;;17.20;98.20;;;;;;4988380;28;20472;-78
2021/08/02 04:37:50;;;;;;;1.50;0.90;;;17.30;98.20;;;;;;4996910;28;21151;-79
2021/08/02 04:40:18;;;;;;;1.50;1.00;;;17.30;98.20;;;;;;4985230;28;20464;-79
2021/08/02 04:42:45;;;;;;;1.50;0.97;;;17.30;98.20;;;;;;4996210;28;20507;-79
2021/08/02 04:45:13;;;;;;;1.50;1.00;;;17.30;98.20;;;;;;4986967;28;20505;-79
2021/08/02 04:47:40;;;;;;;1.50;0.97;;;17.30;98.20;;;;;;4993334;28;20967;-79
2021/08/02 04:50:07;;;;;;;1.50;0.93;;;17.40;98.20;;;;;;4987233;28;20469;-79
2021/08/02 04:52:34;;;;;;;1.50;0.90;;;17.40;98.20;;;;;;4992201;28;20502;-79
2021/08/02 04:55:01;;;;;;;1.50;0.90;;;17.40;98.20;;;;;;4988696;28;20500;-80
2021/08/02 04:57:29;;;;;;;1.50;1.00;;;17.40;98.20;;;;;;4992844;28;20851;-79
2021/08/02 04:59:56;;;;;;;1.50;0.90;;;17.40;98.20;;;;;;4991193;28;20489;-79
2021/08/02 05:02:23;;;;;;;1.50;0.90;;;17.40;98.20;;;;;;4982962;28;20485;-79
2021/08/02 05:04:49;;;;;;;1.50;0.90;;;17.40;98.20;;;;;;4991288;28;20465;-79
2021/08/02 05:07:16;;;;;;;1.50;0.90;;;17.40;98.20;;;;;;4991466;28;20960;-79
2021/08/02 05:09:43;;;;;;;1.50;1.00;;;17.40;98.20;;;;;;4989536;28;20465;-79
2021/08/02 05:12:12;;;;;;;1.50;0.90;;;17.40;98.20;;;;;;4982834;28;21013;-81
2021/08/02 05:14:41;;;;;;;1.50;0.90;;;17.40;98.20;;;;;;4996362;28;20457;-78
2021/08/02 05:17:08;;;;;;;1.50;0.90;;;17.50;98.20;;;;;;4991259;28;20507;-79
2021/08/02 05:19:36;;;;;;;1.50;0.90;;;17.50;98.20;;;;;;4987135;28;20853;-79
2021/08/02 05:22:04;;;;;;;1.50;1.00;;;17.50;98.20;;;;;;4985958;28;21105;-79
2021/08/02 05:24:31;;;;;;;1.50;0.90;;;17.50;98.20;;;;;;4997798;28;20582;-79
2021/08/02 05:26:58;;;;;;;1.50;0.90;;;17.50;98.20;;;;;;4988241;28;20476;-79
2021/08/02 05:29:26;;;;;;;1.50;1.00;;;17.60;98.20;;;;;;4995818;28;20468;-78
2021/08/02 05:31:58;;;;;;;1.50;0.90;;;17.60;98.20;;;;;;4993231;28;20496;-78
2021/08/02 05:34:26;;;;;;;1.50;0.90;;;17.70;98.20;;;;;;5001274;28;20465;-79
2021/08/02 05:36:52;;;;;;;1.50;0.90;;;17.70;98.20;;;;;;4990976;28;20928;-79
2021/08/02 05:39:19;;;;;;;1.50;1.00;;;17.80;98.20;;;;;;5003472;28;20464;-78
2021/08/02 05:41:47;;;;;;;1.50;0.90;;;17.80;98.20;;;;;;4990882;28;20479;-78
2021/08/02 05:44:14;;;;;;;1.50;0.90;;;17.80;98.20;;;;;;5005200;28;20562;-79
2021/08/02 05:46:43;;;;;;;1.50;0.90;;;17.80;98.20;;;;;;4968953;28;20529;-79
2021/08/02 05:49:12;;;;;;;1.50;0.90;;;17.90;98.20;;;;;;4991806;28;20475;-79
2021/08/02 05:51:39;;;;;;;1.50;0.93;;;17.80;98.20;;;;;;4985254;28;20488;-79
2021/08/02 05:54:06;;;;;;;1.50;0.90;;;17.90;98.20;;;;;;4999374;28;20595;-78
2021/08/02 05:56:34;;;;;;;1.50;1.00;;;17.90;98.20;;;;;;4991161;28;20542;-80
2021/08/02 05:59:01;;;;;;;1.50;1.00;;;17.90;98.20;;;;;;5003068;28;20473;-80
2021/08/02 06:01:28;;;;;;;1.50;0.90;;;17.90;98.20;;;;;;4987453;28;20582;-80
2021/08/02 06:03:55;;;;;;;1.50;0.93;;;17.90;98.20;;;;;;5003498;28;20465;-79
2021/08/02 06:06:24;;;;;;;1.50;0.90;;;18.00;98.20;;;;;;4983453;28;21072;-80
2021/08/02 06:08:51;;;;;;;1.50;0.90;;;18.00;98.20;;;;;;4998180;28;20961;-80
2021/08/02 06:11:19;;;;;;;1.50;0.90;;;18.00;98.20;;;;;;4985781;28;20542;-80
2021/08/02 06:13:48;;;;;;;1.50;0.90;;;18.00;98.20;;;;;;5001279;28;20465;-80
2021/08/02 06:16:20;;;;;;;1.50;0.90;;;18.00;98.20;;;;;;4983408;28;20541;-80
2021/08/02 06:18:47;;;;;;;1.50;0.90;;;18.00;98.20;;;;;;4998021;28;20886;-80
2021/08/02 06:21:14;;;;;;;1.50;0.90;;;18.00;98.20;;;;;;4976237;28;21265;-80
2021/08/02 06:23:42;;;;;;;1.50;0.90;;;18.00;98.20;;;;;;4987865;28;20476;-80
2021/08/02 06:26:09;;;;;;;1.50;0.90;;;18.10;98.20;;;;;;4980399;28;20492;-81
2021/08/02 06:28:36;;;;;;;1.50;0.90;;;18.10;98.20;;;;;;4988769;28;20465;-80
2021/08/02 06:31:02;;;;;;;1.50;1.00;;;18.10;98.20;;;;;;4983549;28;20461;-80
2021/08/02 06:33:29;;;;;;;1.50;0.90;;;18.10;98.20;;;;;;5004449;28;20469;-80
2021/08/02 06:35:57;;;;;;;1.70;1.57;;;18.20;98.20;;;;;;4981482;28;20493;-81
2021/08/02 06:38:23;;;;;;;1.50;0.90;;;18.20;98.20;;;;;;5004029;28;20493;-80
2021/08/02 06:40:52;;;;;;;1.50;0.90;;;18.20;98.20;;;;;;4974935;28;20479;-80
2021/08/02 06:43:18;;;;;;;1.50;1.00;;;18.20;98.20;;;;;;5003078;28;20805;-80
2021/08/02 06:45:45;;;;;;;1.50;0.90;;;18.20;98.20;;;;;;4978309;28;20481;-81
2021/08/02 06:48:12;;;;;;;1.50;0.90;;;18.20;98.20;;;;;;4973887;28;20466;-79
2021/08/02 06:50:48;;;;;;;1.50;0.90;;;18.30;98.20;;;;;;4985006;28;20936;-81
2021/08/02 06:53:15;;;;;;;1.50;0.90;;;18.30;98.20;;;;;;4974408;28;20472;-80
2021/08/02 06:55:41;;;;;;;1.50;0.90;;;18.40;98.20;;;;;;4986457;28;20466;-80
2021/08/02 06:58:10;;;;;;;1.50;0.90;;;18.40;98.20;;;;;;4992101;28;20476;-80
2021/08/02 07:00:40;;;;;;;1.50;1.00;;;18.40;98.20;;;;;;4991227;28;20473;-80
2021/08/02 07:03:11;;;;;;;1.50;1.00;;;18.40;98.20;;;;;;4993168;28;20689;-80
2021/08/02 07:05:38;;;;;;;1.50;0.90;;;18.50;98.10;;;;;;4987626;28;20475;-80
2021/08/02 07:08:06;;;;;;;1.50;0.90;;;18.50;98.10;;;;;;4977221;28;20491;-80
2021/08/02 07:10:33;;;;;;;1.50;0.90;;;18.50;97.90;;;;;;4984990;28;20468;-80
2021/08/02 07:13:00;;;;;;;1.50;0.90;;;18.50;97.60;;;;;;4980269;28;20484;-80
2021/08/02 07:15:28;;;;;;;1.50;0.90;;;18.60;97.60;;;;;;4982507;28;20563;-80
2021/08/02 07:17:55;;;;;;;1.50;1.00;;;18.60;96.50;;;;;;4995049;28;20567;-80
2021/08/02 07:20:22;;;;;;;1.50;1.00;;;18.50;97.00;;;;;;4989793;28;20564;-80
2021/08/02 07:22:49;;;;;;;2.33;2.13;;;18.50;97.00;;;;;;4999132;28;20510;-79
2021/08/02 07:25:16;;;;;;;1.50;0.90;;;18.40;97.60;;;;;;4992721;28;20508;-80
2021/08/02 07:27:43;;;;;;;1.50;0.90;;;18.50;97.70;;;;;;4995163;28;20531;-79
2021/08/02 07:30:10;;;;;;;1.50;0.90;;;18.50;97.00;;;;;;4990623;28;20466;-79
2021/08/02 07:32:39;;;;;;;1.50;0.90;;;18.60;96.50;;;;;;4995072;28;20571;-80
2021/08/02 07:35:07;;;;;;;1.50;1.00;;;18.60;96.10;;;;;;4987485;28;21028;-80
2021/08/02 07:37:34;;;;;;;1.50;1.00;;;18.50;96.40;;;;;;4989104;28;20480;-79
2021/08/02 07:40:01;;;;;;;1.50;0.90;;;18.60;95.90;;;;;;4986453;28;20870;-80
2021/08/02 07:42:29;;;;;;;1.50;0.97;;;18.70;96.30;;;;;;4992174;28;20491;-81
2021/08/02 07:44:56;;;;;;;1.50;1.00;;;18.60;95.00;;;;;;4986939;28;20480;-80
2021/08/02 07:47:23;;;;;;;1.53;0.97;;;18.70;95.10;;;;;;4987620;28;20484;-80
2021/08/02 07:49:51;;;;;;;1.50;0.90;;;18.70;94.00;;;;;;4990088;28;20493;-81
2021/08/02 07:52:18;;;;;;;1.50;0.90;;;18.70;93.30;;;;;;4991249;28;20492;-80
2021/08/02 07:54:45;;;;;;;1.50;0.90;;;18.60;93.10;;;;;;4992160;28;20551;-80
2021/08/02 07:57:13;;;;;;;1.50;0.90;;;18.70;93.60;;;;;;4991705;28;20834;-80
2021/08/02 07:59:40;;;;;;;1.50;1.00;;;18.80;93.70;;;;;;4994106;28;20469;-79
2021/08/02 08:02:07;;;;;;;1.50;0.90;;;18.80;93.70;;;;;;4986952;28;20488;-81
2021/08/02 08:04:34;;;;;;;1.50;0.90;;;18.90;93.20;;;;;;4994658;28;20873;-80
2021/08/02 08:07:02;;;;;;;1.50;0.90;;;19.00;93.30;;;;;;4985928;28;20607;-80
2021/08/02 08:09:29;;;;;;;1.50;0.90;;;19.00;93.20;;;;;;4996503;28;20556;-80
2021/08/02 08:11:56;;;;;;;1.50;0.90;;;19.00;93.30;;;;;;4980293;28;21078;-80
2021/08/02 08:14:23;;;;;;;1.50;0.90;;;19.00;92.40;;;;;;4991205;28;20465;-80
2021/08/02 08:16:50;;;;;;;1.50;0.90;;;19.10;92.10;;;;;;4989359;28;20771;-80
2021/08/02 08:19:18;;;;;;;1.50;0.90;;;19.10;91.90;;;;;;4997813;28;20915;-81
2021/08/02 08:21:45;;;;;;;1.50;0.90;;;19.20;92.40;;;;;;4984451;28;20721;-80
2021/08/02 08:24:13;;;;;;;1.53;0.90;;;19.20;91.10;;;;;;4992966;28;20476;-81
2021/08/02 08:26:40;;;;;;;1.50;0.90;;;19.10;91.40;;;;;;4987162;28;20488;-79
2021/08/02 08:29:07;;;;;;;1.50;1.00;;;19.20;92.00;;;;;;5000963;28;20479;-80
2021/08/02 08:31:34;;;;;;;1.50;0.90;;;19.10;90.80;;;;;;4989005;28;20479;-80
2021/08/02 08:34:02;;;;;;;1.50;0.90;;;19.10;90.70;;;;;;5000899;28;20483;-80
2021/08/02 08:36:29;;;;;;;1.50;0.90;;;19.00;90.60;;;;;;4982180;28;20794;-80
2021/08/02 08:38:55;;;;;;;1.50;0.90;;;19.00;90.40;;;;;;4999924;28;20489;-80
2021/08/02 08:41:24;;;;;;;1.50;0.90;;;19.00;90.30;;;;;;4978482;28;20580;-79
2021/08/02 08:43:51;;;;;;;1.50;0.90;;;18.90;90.40;;;;;;4988825;28;21010;-79
2021/08/02 08:46:19;;;;;;;1.50;0.90;;;18.80;90.70;;;;;;4983963;28;20483;-79
2021/08/02 08:48:46;;;;;;;1.50;0.90;;;18.70;91.40;;;;;;5000761;28;20556;-79
2021/08/02 08:51:14;;;;;;;1.50;0.90;;;18.70;92.30;;;;;;4982424;28;20478;-79
2021/08/02 08:53:43;;;;;;;1.50;0.90;;;18.60;93.70;;;;;;5001278;28;20505;-79
2021/08/02 08:56:10;;;;;;;1.50;0.90;;;18.50;95.00;;;;;;4980072;28;20471;-81
2021/08/02 08:58:39;;;;;;;1.50;0.90;;;18.50;94.90;;;;;;5006012;28;20500;-81
2021/08/02 09:01:07;;;;;;;1.50;0.90;;;18.50;93.60;;;;;;4982255;28;20517;-80
2021/08/02 09:03:33;;;;;;;1.50;0.90;;;18.70;94.00;;;;;;5004208;28;21106;-80
2021/08/02 09:06:02;;;;;;;1.50;0.90;;;18.70;93.90;;;;;;4974967;28;21020;-80
2021/08/02 09:08:30;;;;;;;1.50;0.90;;;18.70;92.80;;;;;;5004463;28;20505;-80
2021/08/02 09:10:58;;;;;;;1.50;0.90;;;18.80;89.70;;;;;;4979608;28;20501;-80
2021/08/02 09:13:34;;;;;;;1.50;0.90;;;18.90;90.90;;;;;;5003020;28;20908;-81
2021/08/02 09:16:12;;;;;;;1.50;0.90;;;19.00;90.30;;;;;;4983691;28;20495;-80
2021/08/02 09:18:39;;;;;;;1.50;0.90;;;19.00;88.90;;;;;;4996158;28;20513;-80
2021/08/02 09:21:08;;;;;;;1.50;0.90;;;18.90;87.80;;;;;;4980468;28;21003;-80
2021/08/02 09:23:46;;;;;;;1.50;0.90;;;19.00;87.80;;;;;;5001441;28;21161;-80
2021/08/02 09:26:13;;;;;;;1.50;0.90;;;19.10;89.00;;;;;;4981198;28;20900;-80
2021/08/02 09:28:50;;;;;;;1.50;0.90;;;19.30;88.80;;;;;;4998610;28;20556;-80
2021/08/02 09:31:19;;;;;;;1.50;0.90;;;19.40;88.50;;;;;;4978840;28;20911;-80
2021/08/02 09:33:47;;;;;;;1.50;0.90;;;19.50;86.80;;;;;;4996846;28;20461;-80
2021/08/02 09:36:15;;;;;;;1.50;0.90;;;19.70;87.30;;;;;;4982213;28;20522;-79
2021/08/02 09:38:43;;;;;;;1.50;0.90;;;19.80;87.70;;;;;;4999628;28;20499;-80
2021/08/02 09:41:20;;;;;;;1.50;0.90;;;19.90;87.00;;;;;;4976917;28;20484;-80
2021/08/02 09:43:51;;;;;;;1.50;0.90;;;20.10;87.50;;;;;;4999619;28;21007;-81
2021/08/02 09:46:19;;;;;;;1.50;0.90;;;20.40;87.40;;;;;;4983220;28;20484;-80
2021/08/02 09:48:47;;;;;;;1.50;1.00;;;20.60;87.50;;;;;;5003228;28;20485;-80
2021/08/02 09:51:16;;;;;;;1.50;0.90;;;20.90;86.50;;;;;;4985497;28;20563;-80
2021/08/02 09:53:45;;;;;;;1.50;0.90;;;21.10;86.40;;;;;;5004180;28;20968;-79
2021/08/02 09:56:16;;;;;;;1.50;0.90;;;21.30;85.40;;;;;;4985474;28;20518;-81
2021/08/02 09:58:44;;;;;;;1.50;0.90;;;21.40;84.50;;;;;;4992164;28;20543;-80
2021/08/02 10:01:13;;;;;;;1.50;0.90;;;21.50;84.40;;;;;;4982645;28;20483;-81
2021/08/02 10:03:42;;;;;;;1.53;0.90;;;21.50;83.60;;;;;;5002934;28;21035;-80
2021/08/02 10:06:14;;;;;;;1.50;0.90;;;21.40;83.30;;;;;;4982775;28;20484;-80
2021/08/02 10:08:42;;;;;;;1.50;0.90;;;21.30;83.60;;;;;;4996384;28;20469;-79
2021/08/02 10:11:10;;;;;;;1.50;0.90;;;21.40;84.70;;;;;;4985524;28;20559;-80
2021/08/02 10:13:40;;;;;;;1.50;0.90;;;21.40;84.30;;;;;;5003369;28;20465;-80
2021/08/02 10:16:10;;;;;;;1.50;0.90;;;21.40;83.70;;;;;;4981505;28;20817;-79
2021/08/02 10:18:39;;;;;;;1.50;0.90;;;21.50;84.10;;;;;;5002415;28;20500;-78
2021/08/02 10:21:08;;;;;;;1.50;0.90;;;21.50;83.70;;;;;;4979660;28;20554;-78
2021/08/02 10:23:37;;;;;;;1.50;0.90;;;21.50;83.60;;;;;;4989099;28;20469;-79
2021/08/02 10:26:18;;;;;;;1.50;0.90;;;21.50;84.10;;;;;;4983138;28;20484;-79
2021/08/02 10:28:53;;;;;;;1.50;0.90;;;21.50;83.90;;;;;;4998786;28;20461;-79
2021/08/02 10:31:20;;;;;;;1.50;0.90;;;21.50;83.50;;;;;;4980564;28;20491;-79
2021/08/02 10:33:47;;;;;;;1.50;0.90;;;21.40;84.00;;;;;;5005140;28;20469;-80
2021/08/02 10:36:18;;;;;;;1.50;0.90;;;21.30;85.10;;;;;;4977391;28;21143;-80
2021/08/02 10:38:46;;;;;;;1.50;0.90;;;21.20;85.80;;;;;;5000738;28;20488;-80
2021/08/02 10:41:24;;;;;;;1.50;0.90;;;21.00;84.70;;;;;;4983570;28;20484;-80
2021/08/02 10:43:52;;;;;;;1.50;0.90;;;20.60;85.80;;;;;;5001701;28;20471;-80
2021/08/02 10:46:20;;;;;;;1.50;0.90;;;20.40;86.30;;;;;;4978435;28;20933;-80
2021/08/02 10:48:48;;;;;;;1.50;0.90;;;20.20;87.90;;;;;;5002118;28;20457;-79
2021/08/02 10:51:20;;;;;;;1.50;0.90;;;20.10;89.00;;;;;;4988156;28;20533;-79
2021/08/02 10:53:57;;;;;;;1.50;0.90;;;20.00;89.10;;;;;;5000086;28;20543;-80
2021/08/02 10:56:26;;;;;;;1.50;0.90;;;19.80;89.30;;;;;;4987560;28;20476;-79
2021/08/02 10:58:56;;;;;;;1.50;0.90;;;19.80;89.90;;;;;;5000055;28;20493;-80
2021/08/02 11:01:26;;;;;;;1.50;0.90;;;19.70;90.30;;;;;;4990221;28;20480;-80
2021/08/02 11:03:54;;;;;;;1.50;0.90;;;19.70;90.90;;;;;;5000001;28;20474;-80
2021/08/02 11:06:26;;;;;;;1.50;0.90;;;19.70;90.40;;;;;;4982849;28;20484;-79
2021/08/02 11:08:58;;;;;;;1.50;0.90;;;19.80;90.60;;;;;;4995202;28;20556;-79
2021/08/02 11:11:31;;;;;;;1.50;0.90;;;19.80;90.70;;;;;;4983494;28;20476;-79
2021/08/02 11:14:08;;;;;;;1.50;0.90;;;19.90;89.90;;;;;;4996479;28;20465;-79
2021/08/02 11:16:41;;;;;;;1.50;0.90;;;20.00;89.30;;;;;;4990776;28;20511;-79
2021/08/02 11:19:18;;;;;;;1.50;0.90;;;20.00;88.60;;;;;;4998788;28;20666;-79
2021/08/02 11:21:47;;;;;;;1.50;0.90;;;20.10;88.80;;;;;;4984477;28;20479;-79
2021/08/02 11:24:20;;;;;;;1.80;1.33;;;20.20;88.60;;;;;;4994929;28;20474;-79
2021/08/02 11:26:54;;;;;;;1.50;0.90;;;20.30;87.70;;;;;;4985204;28;20480;-79
2021/08/02 11:29:23;;;;;;;1.50;0.90;;;20.40;87.30;;;;;;4996846;28;21007;-79
2021/08/02 11:31:59;;;;;;;1.50;0.90;;;20.50;86.80;;;;;;4991067;28;21133;-80
2021/08/02 11:34:30;;;;;;;1.50;0.90;;;20.60;86.30;;;;;;4996173;28;20461;-78
2021/08/02 11:37:07;;;;;;;1.50;0.90;;;20.80;86.00;;;;;;4990410;28;21124;-79
2021/08/02 11:39:36;;;;;;;1.50;0.90;;;20.90;87.10;;;;;;4994992;28;20489;-79
2021/08/02 11:42:06;;;;;;;1.50;0.90;;;21.00;86.70;;;;;;4988940;28;20476;-80
2021/08/02 11:44:35;;;;;;;1.50;0.90;;;21.10;85.20;;;;;;4990718;28;20465;-79
2021/08/02 11:47:03;;;;;;;1.50;0.90;;;21.20;85.50;;;;;;4984751;28;20797;-79
2021/08/02 11:49:34;;;;;;;1.50;0.90;;;21.30;84.40;;;;;;4991414;28;20896;-79
2021/08/02 11:52:03;;;;;;;1.50;0.90;;;21.40;84.00;;;;;;4986924;28;20559;-79
2021/08/02 11:54:30;;;;;;;1.50;1.00;;;21.70;83.10;;;;;;4991442;28;20897;-80
2021/08/02 11:57:01;;;;;;;1.50;0.90;;;22.00;82.30;;;;;;4985358;28;20543;-79
2021/08/02 11:59:30;;;;;;;1.50;0.90;;;22.10;81.90;;;;;;4990729;28;21026;-79
2021/08/02 12:02:00;;;;;;;1.50;0.90;;;22.20;82.60;;;;;;4981415;28;20538;-80
2021/08/02 12:04:28;;;;;;;1.50;0.90;;;22.40;81.50;;;;;;4993699;28;20469;-79
2021/08/02 12:06:58;;;;;;;1.50;0.83;;;22.50;80.70;;;;;;4984740;28;20509;-79
2021/08/02 12:09:35;;;;;;;1.50;0.90;;;22.70;81.50;;;;;;4990598;28;20540;-79
2021/08/02 12:12:06;;;;;;;1.50;0.90;;;22.80;80.60;;;;;;4986719;28;20487;-80
2021/08/02 12:14:34;;;;;;;1.50;0.90;;;22.90;80.40;;;;;;4994200;28;20492;-79
2021/08/02 12:17:07;;;;;;;1.50;0.90;;;23.00;79.10;;;;;;4986852;28;20496;-79
2021/08/02 12:19:44;;;;;;;1.50;0.90;;;22.90;79.30;;;;;;4982386;28;21042;-79
2021/08/02 12:22:12;;;;;;;1.50;0.90;;;23.00;78.30;;;;;;4988239;28;21030;-79
2021/08/02 12:24:51;;;;;;;1.50;0.90;;;23.00;79.80;;;;;;4989387;28;20576;-79
2021/08/02 12:27:18;;;;;;;1.50;0.90;;;23.10;79.90;;;;;;4986198;28;20790;-79
2021/08/02 12:29:56;;;;;;;1.50;0.90;;;23.20;78.20;;;;;;4987707;28;20532;-78
2021/08/02 12:32:35;;;;;;;1.50;0.90;;;23.20;77.00;;;;;;4987386;28;21346;-78
2021/08/02 12:35:03;;;;;;;1.50;0.90;;;23.20;77.00;;;;;;4986181;28;20849;-78
2021/08/02 12:37:30;;;;;;;1.50;0.90;;;23.20;76.30;;;;;;4983909;28;20574;-79
2021/08/02 12:39:59;;;;;;;1.50;0.90;;;23.20;76.90;;;;;;4986019;28;20493;-78
2021/08/02 12:42:26;;;;;;;1.50;0.90;;;23.30;77.80;;;;;;4985972;28;20515;-78
2021/08/02 12:44:54;;;;;;;1.50;0.90;;;23.30;78.20;;;;;;4986857;28;20583;-79
2021/08/02 12:47:21;;;;;;;1.50;0.90;;;23.40;78.00;;;;;;4982059;28;20480;-79
2021/08/02 12:49:48;;;;;;;1.50;0.90;;;23.50;77.10;;;;;;4987362;28;20473;-79
2021/08/02 12:52:16;;;;;;;1.50;0.80;;;23.60;77.80;;;;;;4986425;28;20488;-79
2021/08/02 12:54:43;;;;;;;1.50;0.90;;;23.70;77.00;;;;;;4987436;28;20975;-79
2021/08/02 12:57:12;;;;;;;1.50;0.90;;;23.70;75.70;;;;;;4987059;28;20915;-78
2021/08/02 12:59:39;;;;;;;1.50;0.90;;;23.80;77.70;;;;;;4982972;28;20516;-79